Time;durP1;ratioP1;P1;durP2;ratioP2;P2;SDS_P1;SDS_P2;PMS_P1;PMS_P2;Temp;Humidity;BMP_temperature;BMP_pressure;BME280_temperature;BME280_humidity;BME280_pressure;Samples;Min_cycle;Max_cycle;Signal;HPM_P1;HPM_P2
2024/01/19 00:02:18;;;;;;;0.10;0.10;;;;;;;;;;5030928;28;20476;-79
2024/01/19 00:04:46;;;;;;;0.20;0.20;;;;;;;;;;5027489;28;20084;-78
2024/01/19 00:07:14;;;;;;;0.10;0.10;;;;;;;;;;5029387;28;20364;-79
2024/01/19 00:09:42;;;;;;;0.10;0.10;;;;;;;;;;5028032;28;20056;-78
2024/01/19 00:12:09;;;;;;;0.30;0.30;;;;;;;;;;5029157;28;20155;-79
2024/01/19 00:14:37;;;;;;;0.47;0.47;;;;;;;;;;5027392;28;20415;-79
2024/01/19 00:17:05;;;;;;;0.10;0.10;;;;;;;;;;5033218;28;20485;-79
2024/01/19 00:19:33;;;;;;;0.22;0.22;;;;;;;;;;5028383;28;20335;-78
2024/01/19 00:22:01;;;;;;;0.15;0.15;;;;;;;;;;5029833;28;20068;-78
2024/01/19 00:24:28;;;;;;;0.40;0.40;;;;;;;;;;5026954;28;20112;-78
2024/01/19 00:26:56;;;;;;;0.10;0.10;;;;;;;;;;5026004;28;20136;-79
2024/01/19 00:29:24;;;;;;;0.20;0.20;;;;;;;;;;5029350;28;20392;-78
2024/01/19 00:31:52;;;;;;;0.20;0.20;;;;;;;;;;5028441;28;20045;-79
2024/01/19 00:34:19;;;;;;;0.70;0.70;;;;;;;;;;5028385;28;20465;-79
2024/01/19 00:36:47;;;;;;;0.20;0.20;;;;;;;;;;5029700;28;20056;-78
2024/01/19 00:39:15;;;;;;;0.63;0.63;;;;;;;;;;5028715;28;20041;-78
2024/01/19 00:41:43;;;;;;;0.55;0.55;;;;;;;;;;5019870;28;20130;-79
2024/01/19 00:44:10;;;;;;;0.10;0.10;;;;;;;;;;5027215;28;20122;-79
2024/01/19 00:46:38;;;;;;;1.30;1.15;;;;;;;;;;5026114;28;20077;-79
2024/01/19 00:49:06;;;;;;;0.10;0.10;;;;;;;;;;5023410;28;20099;-79
2024/01/19 00:51:33;;;;;;;0.10;0.10;;;;;;;;;;5013820;28;20547;-79
2024/01/19 00:54:01;;;;;;;0.73;0.73;;;;;;;;;;5012844;28;20330;-79
2024/01/19 00:56:29;;;;;;;0.85;0.85;;;;;;;;;;5008756;28;20041;-79
2024/01/19 00:58:56;;;;;;;0.30;0.30;;;;;;;;;;5025503;28;20053;-79
2024/01/19 01:01:24;;;;;;;0.68;0.68;;;;;;;;;;5027645;28;20144;-79
2024/01/19 01:03:54;;;;;;;0.40;0.40;;;;;;;;;;5027424;28;20077;-79
2024/01/19 01:06:22;;;;;;;0.40;0.40;;;;;;;;;;5027948;28;20041;-80
2024/01/19 01:08:50;;;;;;;0.10;0.10;;;;;;;;;;5019123;28;20053;-79
2024/01/19 01:11:18;;;;;;;0.10;0.10;;;;;;;;;;5031216;28;20037;-79
2024/01/19 01:13:46;;;;;;;0.45;0.45;;;;;;;;;;5025308;28;20042;-79
2024/01/19 01:16:14;;;;;;;0.40;0.40;;;;;;;;;;5010145;28;20052;-79
2024/01/19 01:18:42;;;;;;;1.33;1.23;;;;;;;;;;5013040;28;20045;-80
2024/01/19 01:21:09;;;;;;;0.55;0.52;;;;;;;;;;5024563;28;20111;-79
2024/01/19 01:23:37;;;;;;;1.45;1.35;;;;;;;;;;5012985;28;20053;-79
2024/01/19 01:26:05;;;;;;;0.57;0.57;;;;;;;;;;5016197;28;20053;-79
2024/01/19 01:28:33;;;;;;;0.13;0.13;;;;;;;;;;5016666;28;20037;-79
2024/01/19 01:31:03;;;;;;;1.75;0.95;;;;;;;;;;5023980;28;20041;-79
2024/01/19 01:33:30;;;;;;;0.77;0.77;;;;;;;;;;5032939;28;20090;-79
2024/01/19 01:35:58;;;;;;;0.60;0.60;;;;;;;;;;5027226;28;20045;-79
2024/01/19 01:38:26;;;;;;;0.95;0.95;;;;;;;;;;5032324;28;20477;-79
2024/01/19 01:40:54;;;;;;;0.30;0.30;;;;;;;;;;5029319;28;20049;-79
2024/01/19 01:43:25;;;;;;;2.10;0.50;;;;;;;;;;5027165;28;20045;-79
2024/01/19 01:45:53;;;;;;;;;;;;;;;;;;5020462;28;20119;-79
2024/01/19 01:48:22;;;;;;;0.28;0.28;;;;;;;;;;5028431;28;19925;-79
2024/01/19 01:50:50;;;;;;;0.30;0.30;;;;;;;;;;5024294;28;20042;-79
2024/01/19 01:53:19;;;;;;;0.93;0.93;;;;;;;;;;5027436;28;20038;-79
2024/01/19 01:55:48;;;;;;;0.57;0.57;;;;;;;;;;5027413;28;20057;-79
2024/01/19 01:58:16;;;;;;;0.73;0.73;;;;;;;;;;5027820;28;20053;-79
2024/01/19 02:00:44;;;;;;;0.40;0.40;;;;;;;;;;5019269;28;20515;-78
2024/01/19 02:03:12;;;;;;;0.60;0.60;;;;;;;;;;5006690;28;20249;-78
2024/01/19 02:05:42;;;;;;;0.82;0.82;;;;;;;;;;5024034;28;20045;-78
2024/01/19 02:08:09;;;;;;;0.75;0.75;;;;;;;;;;5026855;28;20632;-78
2024/01/19 02:10:37;;;;;;;0.32;0.32;;;;;;;;;;5026258;28;20048;-78
2024/01/19 02:13:05;;;;;;;0.17;0.17;;;;;;;;;;5028315;28;20100;-78
2024/01/19 02:15:35;;;;;;;0.38;0.38;;;;;;;;;;5004922;28;20041;-78
2024/01/19 02:18:02;;;;;;;0.50;0.50;;;;;;;;;;5025904;28;20132;-78
2024/01/19 02:20:31;;;;;;;0.20;0.20;;;;;;;;;;5055824;22;20077;-80
2024/01/19 02:23:00;;;;;;;0.68;0.65;;;;;;;;;;5023976;28;20041;-80
2024/01/19 02:25:27;;;;;;;3.13;1.50;;;;;;;;;;5036982;28;20052;-80
2024/01/19 02:27:56;;;;;;;0.63;0.63;;;;;;;;;;5048464;28;20071;-84
2024/01/19 02:30:23;;;;;;;1.90;1.80;;;;;;;;;;5043001;28;20083;-82
2024/01/19 02:32:52;;;;;;;0.35;0.35;;;;;;;;;;5040792;28;20056;-84
2024/01/19 02:35:19;;;;;;;0.35;0.35;;;;;;;;;;5024630;28;20045;-84
2024/01/19 02:37:47;;;;;;;0.20;0.20;;;;;;;;;;5046121;28;20265;-80
2024/01/19 02:40:15;;;;;;;1.67;1.27;;;;;;;;;;5045029;28;20498;-83
2024/01/19 02:42:43;;;;;;;0.20;0.20;;;;;;;;;;5042442;28;20053;-80
2024/01/19 02:45:11;;;;;;;0.70;0.70;;;;;;;;;;5041817;28;20042;-80
2024/01/19 02:47:39;;;;;;;1.95;1.27;;;;;;;;;;5041401;28;20134;-80
2024/01/19 02:50:07;;;;;;;0.15;0.15;;;;;;;;;;5044695;28;20048;-82
2024/01/19 02:52:34;;;;;;;1.80;1.70;;;;;;;;;;5040310;28;20071;-84
2024/01/19 02:55:02;;;;;;;0.65;0.65;;;;;;;;;;5036930;28;20049;-80
2024/01/19 02:57:31;;;;;;;0.25;0.25;;;;;;;;;;5043711;28;20518;-78
2024/01/19 02:59:59;;;;;;;0.50;0.50;;;;;;;;;;5039685;28;20491;-78
2024/01/19 03:02:27;;;;;;;0.40;0.40;;;;;;;;;;5003084;28;20056;-79
2024/01/19 03:04:54;;;;;;;0.43;0.43;;;;;;;;;;5038230;28;20049;-78
2024/01/19 03:07:22;;;;;;;0.80;0.80;;;;;;;;;;5043712;28;20265;-79
2024/01/19 03:09:50;;;;;;;0.10;0.10;;;;;;;;;;5027752;28;20045;-80
2024/01/19 03:12:18;;;;;;;0.10;0.10;;;;;;;;;;5010870;28;20106;-81
2024/01/19 03:14:46;;;;;;;0.88;0.57;;;;;;;;;;5044063;28;20538;-80
2024/01/19 03:17:14;;;;;;;0.85;0.85;;;;;;;;;;5033453;28;20069;-83
2024/01/19 03:19:41;;;;;;;1.60;1.50;;;;;;;;;;5032430;28;20041;-83
2024/01/19 03:22:09;;;;;;;0.38;0.38;;;;;;;;;;5032135;28;20051;-80
2024/01/19 03:24:36;;;;;;;0.38;0.38;;;;;;;;;;5051757;28;20057;-82
2024/01/19 03:27:04;;;;;;;1.60;1.30;;;;;;;;;;5029830;28;20049;-80
2024/01/19 03:29:32;;;;;;;0.40;0.40;;;;;;;;;;5034647;28;20060;-81
2024/01/19 03:31:59;;;;;;;1.40;1.40;;;;;;;;;;5049198;28;20131;-82
2024/01/19 03:34:27;;;;;;;0.40;0.40;;;;;;;;;;5053927;28;20041;-81
2024/01/19 03:36:55;;;;;;;1.02;1.00;;;;;;;;;;5045564;28;20123;-81
2024/01/19 03:39:23;;;;;;;1.08;1.08;;;;;;;;;;5029330;28;20529;-81
2024/01/19 03:41:51;;;;;;;0.32;0.32;;;;;;;;;;5040910;28;20048;-81
2024/01/19 03:44:19;;;;;;;0.68;0.68;;;;;;;;;;5050872;28;20048;-81
2024/01/19 03:46:46;;;;;;;0.25;0.25;;;;;;;;;;5048894;28;20447;-81
2024/01/19 03:49:17;;;;;;;0.10;0.10;;;;;;;;;;5046315;28;20417;-80
2024/01/19 03:52:00;;;;;;;2.40;1.25;;;;;;;;;;5034689;28;20049;-80
2024/01/19 03:54:28;;;;;;;0.10;0.10;;;;;;;;;;5033151;28;20047;-80
2024/01/19 03:56:58;;;;;;;0.55;0.55;;;;;;;;;;5054583;28;20051;-80
2024/01/19 03:59:27;;;;;;;1.42;0.82;;;;;;;;;;5053238;28;20649;-81
2024/01/19 04:01:55;;;;;;;0.98;0.90;;;;;;;;;;5046426;28;20345;-81
2024/01/19 04:04:23;;;;;;;0.47;0.47;;;;;;;;;;5031088;28;20498;-80
2024/01/19 04:06:52;;;;;;;0.13;0.13;;;;;;;;;;5045410;28;20122;-81
2024/01/19 04:09:20;;;;;;;0.38;0.38;;;;;;;;;;5048357;28;20538;-80
2024/01/19 04:11:48;;;;;;;0.10;0.10;;;;;;;;;;5030232;28;20049;-83
2024/01/19 04:14:15;;;;;;;0.30;0.30;;;;;;;;;;5049768;28;20137;-82
2024/01/19 04:16:43;;;;;;;0.10;0.10;;;;;;;;;;5036058;28;20697;-80
2024/01/19 04:19:11;;;;;;;1.05;1.05;;;;;;;;;;5052675;28;20045;-80
2024/01/19 04:21:39;;;;;;;1.80;1.38;;;;;;;;;;5049689;28;20403;-80
2024/01/19 04:24:06;;;;;;;0.35;0.32;;;;;;;;;;5051727;28;20052;-82
2024/01/19 04:26:37;;;;;;;0.93;0.67;;;;;;;;;;5051410;28;20041;-82
2024/01/19 04:29:05;;;;;;;0.22;0.22;;;;;;;;;;5048143;28;20037;-80
2024/01/19 04:31:33;;;;;;;6.38;2.10;;;;;;;;;;5027973;28;20114;-80
2024/01/19 04:34:00;;;;;;;1.00;1.00;;;;;;;;;;5030708;28;20041;-84
2024/01/19 04:36:28;;;;;;;0.98;0.98;;;;;;;;;;5048262;28;21278;-80
2024/01/19 04:38:56;;;;;;;0.10;0.10;;;;;;;;;;5041956;28;20053;-81
2024/01/19 04:41:23;;;;;;;0.20;0.20;;;;;;;;;;5050591;28;20461;-80
2024/01/19 04:43:51;;;;;;;0.47;0.47;;;;;;;;;;5027685;28;20051;-82
2024/01/19 04:46:19;;;;;;;1.35;0.98;;;;;;;;;;5050824;28;20045;-80
2024/01/19 04:48:47;;;;;;;1.25;0.40;;;;;;;;;;5045568;28;20051;-81
2024/01/19 04:51:15;;;;;;;0.63;0.63;;;;;;;;;;5048539;28;21011;-80
2024/01/19 04:53:43;;;;;;;0.63;0.63;;;;;;;;;;5048642;28;20060;-80
2024/01/19 04:56:10;;;;;;;0.47;0.35;;;;;;;;;;5031310;28;20052;-81
2024/01/19 04:58:38;;;;;;;0.38;0.38;;;;;;;;;;5050427;28;20056;-81
2024/01/19 05:01:06;;;;;;;0.88;0.82;;;;;;;;;;5028826;28;20962;-81
2024/01/19 05:03:34;;;;;;;3.03;2.08;;;;;;;;;;5033540;28;20053;-80
2024/01/19 05:06:01;;;;;;;0.20;0.20;;;;;;;;;;5049685;28;20034;-80
2024/01/19 05:08:29;;;;;;;0.38;0.38;;;;;;;;;;5027381;28;20075;-81
2024/01/19 05:10:57;;;;;;;0.20;0.20;;;;;;;;;;5037041;28;20091;-83
2024/01/19 05:13:25;;;;;;;0.43;0.43;;;;;;;;;;5042524;28;21385;-83
2024/01/19 05:15:53;;;;;;;1.15;0.88;;;;;;;;;;5041733;28;20054;-81
2024/01/19 05:18:21;;;;;;;0.30;0.30;;;;;;;;;;5048893;28;20059;-81
2024/01/19 05:20:49;;;;;;;0.80;0.80;;;;;;;;;;5037857;28;20533;-81
2024/01/19 05:23:17;;;;;;;0.75;0.75;;;;;;;;;;5044208;28;20068;-81
2024/01/19 05:25:45;;;;;;;0.50;0.50;;;;;;;;;;5050145;28;20106;-81
2024/01/19 05:28:14;;;;;;;0.30;0.30;;;;;;;;;;5042032;28;20056;-80
2024/01/19 05:30:42;;;;;;;1.05;1.05;;;;;;;;;;5016719;28;20045;-81
2024/01/19 05:33:10;;;;;;;0.10;0.10;;;;;;;;;;5042493;28;20072;-80
2024/01/19 05:35:38;;;;;;;1.35;1.25;;;;;;;;;;5042438;28;20049;-80
2024/01/19 05:38:06;;;;;;;0.20;0.20;;;;;;;;;;5024978;28;20057;-80
2024/01/19 05:40:34;;;;;;;1.63;1.52;;;;;;;;;;5025034;28;20049;-80
2024/01/19 05:43:03;;;;;;;2.25;2.05;;;;;;;;;;5039803;28;20053;-80
2024/01/19 05:45:31;;;;;;;0.20;0.20;;;;;;;;;;5028758;28;20037;-80
2024/01/19 05:47:58;;;;;;;1.08;1.00;;;;;;;;;;5040069;28;20052;-79
2024/01/19 05:50:26;;;;;;;0.35;0.35;;;;;;;;;;5043786;28;20037;-79
2024/01/19 05:52:54;;;;;;;0.90;0.90;;;;;;;;;;5044996;28;20036;-79
2024/01/19 05:55:22;;;;;;;0.10;0.10;;;;;;;;;;5047218;28;20510;-78
2024/01/19 05:57:50;;;;;;;2.08;0.65;;;;;;;;;;5027810;28;20044;-80
2024/01/19 06:00:18;;;;;;;1.25;1.15;;;;;;;;;;5050379;28;20051;-81
2024/01/19 06:02:46;;;;;;;0.52;0.52;;;;;;;;;;5051231;28;20049;-81
2024/01/19 06:05:14;;;;;;;0.45;0.20;;;;;;;;;;5009210;28;21097;-78
2024/01/19 06:07:42;;;;;;;0.43;0.43;;;;;;;;;;5045278;28;20578;-79
2024/01/19 06:10:11;;;;;;;2.20;1.85;;;;;;;;;;5020657;28;20494;-84
2024/01/19 06:12:38;;;;;;;2.55;1.45;;;;;;;;;;5043944;28;20095;-83
2024/01/19 06:15:06;;;;;;;0.60;0.57;;;;;;;;;;5033562;28;20049;-80
2024/01/19 06:17:34;;;;;;;0.17;0.17;;;;;;;;;;5039568;28;20483;-82
2024/01/19 06:20:02;;;;;;;0.82;0.82;;;;;;;;;;5036769;28;20122;-80
2024/01/19 06:22:30;;;;;;;0.30;0.30;;;;;;;;;;5036741;28;20128;-79
2024/01/19 06:24:57;;;;;;;0.32;0.30;;;;;;;;;;5038978;28;20034;-78
2024/01/19 06:27:25;;;;;;;0.80;0.50;;;;;;;;;;5043407;28;20060;-79
2024/01/19 06:29:52;;;;;;;1.73;1.63;;;;;;;;;;5045827;28;20053;-79
2024/01/19 06:32:20;;;;;;;0.45;0.40;;;;;;;;;;5020297;28;20068;-79
2024/01/19 06:34:48;;;;;;;16.45;3.92;;;;;;;;;;5028116;28;20053;-78
2024/01/19 06:37:15;;;;;;;2.40;1.80;;;;;;;;;;5019922;28;20057;-80
2024/01/19 06:39:46;;;;;;;2.42;2.33;;;;;;;;;;5035695;28;20411;-81
2024/01/19 06:42:14;;;;;;;0.35;0.35;;;;;;;;;;5039222;28;20231;-81
2024/01/19 06:44:43;;;;;;;2.38;1.75;;;;;;;;;;5043931;28;20052;-80
2024/01/19 06:47:11;;;;;;;1.25;1.15;;;;;;;;;;5036749;28;20059;-78
2024/01/19 06:49:38;;;;;;;0.35;0.35;;;;;;;;;;5045729;28;20060;-78
2024/01/19 06:52:07;;;;;;;0.57;0.52;;;;;;;;;;5035875;28;20044;-80
2024/01/19 06:54:34;;;;;;;1.10;1.08;;;;;;;;;;5023051;28;20047;-79
2024/01/19 06:57:02;;;;;;;1.73;1.63;;;;;;;;;;5014827;28;20426;-79
2024/01/19 06:59:32;;;;;;;1.98;1.58;;;;;;;;;;5038481;28;20124;-81
2024/01/19 07:02:00;;;;;;;0.95;0.95;;;;;;;;;;5032438;28;20045;-80
2024/01/19 07:04:27;;;;;;;3.53;0.77;;;;;;;;;;5029770;28;20289;-79
2024/01/19 07:06:55;;;;;;;3.33;1.38;;;;;;;;;;5037031;28;20048;-79
2024/01/19 07:09:26;;;;;;;0.88;0.88;;;;;;;;;;5041691;28;20055;-84
2024/01/19 07:11:54;;;;;;;0.32;0.32;;;;;;;;;;5020670;28;20060;-82
2024/01/19 07:14:21;;;;;;;0.80;0.80;;;;;;;;;;5046429;28;20121;-80
2024/01/19 07:16:48;;;;;;;3.42;2.72;;;;;;;;;;5023082;28;20404;-80
2024/01/19 07:19:18;;;;;;;3.58;1.85;;;;;;;;;;5051663;28;20041;-79
2024/01/19 07:21:45;;;;;;;0.77;0.77;;;;;;;;;;5034985;28;20049;-80
2024/01/19 07:24:13;;;;;;;1.45;1.35;;;;;;;;;;5038308;28;20049;-80
2024/01/19 07:26:40;;;;;;;0.43;0.43;;;;;;;;;;5039469;28;20913;-79
2024/01/19 07:29:09;;;;;;;0.20;0.20;;;;;;;;;;5040803;28;20557;-79
2024/01/19 07:31:37;;;;;;;1.48;0.75;;;;;;;;;;5044058;28;20098;-79
2024/01/19 07:34:05;;;;;;;1.38;1.27;;;;;;;;;;5048676;28;20120;-81
2024/01/19 07:36:32;;;;;;;1.85;0.93;;;;;;;;;;5042481;28;20068;-83
2024/01/19 07:39:00;;;;;;;0.55;0.55;;;;;;;;;;5035472;28;20049;-85
2024/01/19 07:41:28;;;;;;;0.63;0.63;;;;;;;;;;5025381;28;20055;-78
2024/01/19 07:43:56;;;;;;;0.32;0.32;;;;;;;;;;5028061;28;20052;-79
2024/01/19 07:46:23;;;;;;;0.28;0.28;;;;;;;;;;5045492;28;20438;-79
2024/01/19 07:48:51;;;;;;;0.10;0.10;;;;;;;;;;5048602;28;20045;-78
2024/01/19 07:51:19;;;;;;;0.22;0.22;;;;;;;;;;5046052;28;20489;-78
2024/01/19 07:53:47;;;;;;;7.05;2.40;;;;;;;;;;5031729;28;20056;-78
2024/01/19 07:56:14;;;;;;;1.52;1.40;;;;;;;;;;5033946;28;20362;-79
2024/01/19 07:58:45;;;;;;;0.65;0.40;;;;;;;;;;5042408;28;20521;-78
2024/01/19 08:01:12;;;;;;;0.68;0.68;;;;;;;;;;5047695;28;20051;-79
2024/01/19 08:03:40;;;;;;;2.03;1.90;;;;;;;;;;5033229;28;20113;-81
2024/01/19 08:06:08;;;;;;;0.80;0.30;;;;;;;;;;5051929;28;20308;-81
2024/01/19 08:08:35;;;;;;;2.28;1.50;;;;;;;;;;5036331;28;20697;-83
2024/01/19 08:11:03;;;;;;;1.13;1.08;;;;;;;;;;5030926;28;20674;-80
2024/01/19 08:13:31;;;;;;;0.77;0.77;;;;;;;;;;5032613;28;20155;-80
2024/01/19 08:15:58;;;;;;;0.80;0.80;;;;;;;;;;5046545;28;20048;-81
2024/01/19 08:18:26;;;;;;;1.02;0.60;;;;;;;;;;5040189;28;20102;-81
2024/01/19 08:21:03;;;;;;;0.47;0.47;;;;;;;;;;4096559;23;20049;-87
2024/01/19 08:23:39;;;;;;;1.42;1.33;;;;;;;;;;5035224;28;20098;-87
2024/01/19 08:26:12;;;;;;;2.08;1.90;;;;;;;;;;5026545;28;20037;-87
2024/01/19 08:28:46;;;;;;;0.80;0.80;;;;;;;;;;5021245;28;20077;-87
2024/01/19 08:31:16;;;;;;;1.20;0.95;;;;;;;;;;5031831;28;20552;-87
2024/01/19 08:33:43;;;;;;;0.82;0.73;;;;;;;;;;5032274;28;20534;-86
2024/01/19 08:36:11;;;;;;;1.48;1.15;;;;;;;;;;5051291;28;20075;-87
2024/01/19 08:38:39;;;;;;;3.20;2.42;;;;;;;;;;5031767;28;20045;-86
2024/01/19 08:41:06;;;;;;;1.98;1.80;;;;;;;;;;5050905;28;20417;-87
2024/01/19 08:43:33;;;;;;;0.85;0.63;;;;;;;;;;5041852;28;20359;-86
2024/01/19 08:46:03;;;;;;;2.97;2.55;;;;;;;;;;5050023;28;20073;-86
2024/01/19 08:48:31;;;;;;;1.55;1.17;;;;;;;;;;5050156;28;20047;-86
2024/01/19 08:50:59;;;;;;;0.65;0.65;;;;;;;;;;5051276;28;20041;-86
2024/01/19 08:53:27;;;;;;;0.20;0.20;;;;;;;;;;5051094;28;20396;-86
2024/01/19 08:55:54;;;;;;;0.95;0.95;;;;;;;;;;5028089;28;20076;-86
2024/01/19 08:58:21;;;;;;;0.90;0.90;;;;;;;;;;5033081;28;20140;-86
2024/01/19 09:00:49;;;;;;;7.97;2.05;;;;;;;;;;5042625;28;20045;-86
2024/01/19 09:03:23;;;;;;;1.13;1.13;;;;;;;;;;5043166;28;20053;-86
2024/01/19 09:05:52;;;;;;;1.27;1.17;;;;;;;;;;5050735;28;20132;-85
2024/01/19 09:08:20;;;;;;;5.82;2.85;;;;;;;;;;5031623;28;20123;-87
2024/01/19 09:10:47;;;;;;;1.00;0.73;;;;;;;;;;5050902;28;20041;-87
2024/01/19 09:13:15;;;;;;;1.38;1.10;;;;;;;;;;5052077;28;20064;-85
2024/01/19 09:15:42;;;;;;;0.30;0.30;;;;;;;;;;5051734;28;20324;-86
2024/01/19 09:18:10;;;;;;;0.20;0.20;;;;;;;;;;5033065;28;20075;-86
2024/01/19 09:20:37;;;;;;;6.95;1.83;;;;;;;;;;5041593;28;20505;-87
2024/01/19 09:23:05;;;;;;;2.08;1.40;;;;;;;;;;5035742;28;20048;-86
2024/01/19 09:25:32;;;;;;;1.50;1.42;;;;;;;;;;5046003;28;20494;-85
2024/01/19 09:28:01;;;;;;;1.25;1.15;;;;;;;;;;5047649;28;20159;-87
2024/01/19 09:30:28;;;;;;;2.88;2.58;;;;;;;;;;5045036;28;20096;-86
2024/01/19 09:32:56;;;;;;;1.92;1.83;;;;;;;;;;5044251;28;20406;-86
2024/01/19 09:35:24;;;;;;;5.72;1.58;;;;;;;;;;5050101;28;20503;-86
2024/01/19 09:37:52;;;;;;;1.45;1.35;;;;;;;;;;5027150;28;20146;-84
2024/01/19 09:40:20;;;;;;;1.85;1.75;;;;;;;;;;5037328;28;20502;-86
2024/01/19 09:42:49;;;;;;;0.52;0.52;;;;;;;;;;5029106;28;20166;-86
2024/01/19 09:45:19;;;;;;;1.13;1.13;;;;;;;;;;5046971;28;20041;-85
2024/01/19 09:48:05;;;;;;;0.80;0.80;;;;;;;;;;5026572;28;20118;-86
2024/01/19 09:50:37;;;;;;;2.67;1.45;;;;;;;;;;5046845;28;20099;-87
2024/01/19 09:53:15;;;;;;;1.77;1.67;;;;;;;;;;5030103;28;20048;-86
2024/01/19 09:55:42;;;;;;;3.67;2.00;;;;;;;;;;5015186;28;20457;-86
2024/01/19 09:58:13;;;;;;;1.42;1.30;;;;;;;;;;5010760;28;20063;-85
2024/01/19 10:00:40;;;;;;;0.13;0.13;;;;;;;;;;5046254;28;20049;-85
2024/01/19 10:03:18;;;;;;;0.45;0.45;;;;;;;;;;5048268;28;20029;-83
2024/01/19 10:05:51;;;;;;;3.75;0.68;;;;;;;;;;5069166;28;20029;-84
2024/01/19 10:08:19;;;;;;;0.82;0.82;;;;;;;;;;5053126;28;20471;-84
2024/01/19 10:10:47;;;;;;;0.70;0.70;;;;;;;;;;5049630;28;20099;-85
2024/01/19 10:13:15;;;;;;;0.43;0.43;;;;;;;;;;5068584;28;20087;-85
2024/01/19 10:15:44;;;;;;;2.85;2.13;;;;;;;;;;5047893;28;20044;-85
2024/01/19 10:18:13;;;;;;;0.82;0.82;;;;;;;;;;5066477;28;20050;-84
2024/01/19 10:20:41;;;;;;;1.80;1.17;;;;;;;;;;5060888;28;20079;-86
2024/01/19 10:23:19;;;;;;;0.35;0.30;;;;;;;;;;5053303;28;20045;-85
2024/01/19 10:25:49;;;;;;;3.00;2.70;;;;;;;;;;5047494;28;20049;-84
2024/01/19 10:28:33;;;;;;;1.08;0.65;;;;;;;;;;5027712;28;20044;-85
2024/01/19 10:31:18;;;;;;;4.65;3.05;;;;;;;;;;5046780;28;20568;-85
2024/01/19 10:33:53;;;;;;;3.00;2.70;;;;;;;;;;5033091;28;20041;-85
2024/01/19 10:36:24;;;;;;;1.95;1.52;;;;;;;;;;5051095;28;20131;-84
2024/01/19 10:38:52;;;;;;;0.75;0.75;;;;;;;;;;5028416;28;20049;-85
2024/01/19 10:41:25;;;;;;;4.10;2.88;;;;;;;;;;5035287;28;20053;-85
2024/01/19 10:44:09;;;;;;;2.50;2.30;;;;;;;;;;5026910;28;20049;-84
2024/01/19 10:46:37;;;;;;;0.35;0.35;;;;;;;;;;5048813;28;20056;-82
2024/01/19 10:49:07;;;;;;;0.90;0.90;;;;;;;;;;5047111;28;20029;-85
2024/01/19 10:51:35;;;;;;;1.80;1.70;;;;;;;;;;5046203;28;20422;-84
2024/01/19 10:54:03;;;;;;;0.73;0.73;;;;;;;;;;5045307;28;20069;-84
2024/01/19 10:56:31;;;;;;;1.35;1.25;;;;;;;;;;5030229;28;20044;-85
2024/01/19 10:59:12;;;;;;;3.53;2.63;;;;;;;;;;5043064;28;20356;-85
2024/01/19 11:01:40;;;;;;;4.43;2.67;;;;;;;;;;5046858;28;20047;-85
2024/01/19 11:04:16;;;;;;;2.42;2.28;;;;;;;;;;5045943;28;20037;-84
2024/01/19 11:06:43;;;;;;;0.82;0.82;;;;;;;;;;5048766;28;20049;-85
2024/01/19 11:09:13;;;;;;;4.38;3.42;;;;;;;;;;5028254;28;20498;-85
2024/01/19 11:11:45;;;;;;;2.28;1.80;;;;;;;;;;5044709;28;20041;-85
2024/01/19 11:14:17;;;;;;;3.47;2.03;;;;;;;;;;5042245;28;20033;-87
2024/01/19 11:16:47;;;;;;;1.25;1.02;;;;;;;;;;5044851;28;20064;-88
2024/01/19 11:19:18;;;;;;;0.38;0.38;;;;;;;;;;5039724;28;20135;-87
2024/01/19 11:21:45;;;;;;;3.13;2.80;;;;;;;;;;5023904;28;20056;-87
2024/01/19 11:24:14;;;;;;;1.92;1.75;;;;;;;;;;5022888;28;20102;-87
2024/01/19 11:26:44;;;;;;;3.17;2.88;;;;;;;;;;5043385;28;20049;-87
2024/01/19 11:29:28;;;;;;;2.35;2.10;;;;;;;;;;5025553;28;20045;-87
2024/01/19 11:31:56;;;;;;;4.40;3.35;;;;;;;;;;5028502;28;20044;-87
2024/01/19 11:34:39;;;;;;;3.10;1.77;;;;;;;;;;5028673;28;20453;-85
2024/01/19 11:37:07;;;;;;;2.70;2.35;;;;;;;;;;5048874;28;20411;-85
2024/01/19 11:39:38;;;;;;;0.10;0.10;;;;;;;;;;5051550;28;20060;-84
2024/01/19 11:42:30;;;;;;;3.95;3.55;;;;;;;;;;5049006;28;20422;-83
2024/01/19 11:44:57;;;;;;;2.40;1.65;;;;;;;;;;5050588;28;20049;-85
2024/01/19 11:47:37;;;;;;;3.88;2.00;;;;;;;;;;5031389;28;20045;-85
2024/01/19 11:50:05;;;;;;;2.42;2.20;;;;;;;;;;5039831;28;20045;-85
2024/01/19 11:52:35;;;;;;;13.00;4.47;;;;;;;;;;5024968;28;20051;-83
2024/01/19 11:55:34;;;;;;;2.20;1.95;;;;;;;;;;5043230;28;20080;-84
2024/01/19 11:58:21;;;;;;;1.08;0.75;;;;;;;;;;5044231;28;20048;-84
2024/01/19 12:00:49;;;;;;;0.77;0.77;;;;;;;;;;5020325;28;20040;-85
2024/01/19 12:03:19;;;;;;;4.05;1.65;;;;;;;;;;5041989;28;20126;-84
2024/01/19 12:05:48;;;;;;;2.97;1.27;;;;;;;;;;5046728;28;20075;-85
2024/01/19 12:08:16;;;;;;;7.97;2.13;;;;;;;;;;5013983;28;20564;-83
2024/01/19 12:10:43;;;;;;;0.60;0.60;;;;;;;;;;5034745;28;20041;-86
2024/01/19 12:13:13;;;;;;;4.85;3.38;;;;;;;;;;5024920;28;20522;-84
2024/01/19 12:15:41;;;;;;;2.80;2.60;;;;;;;;;;5032729;28;20513;-85
2024/01/19 12:18:14;;;;;;;0.90;0.90;;;;;;;;;;5029857;28;20043;-85
2024/01/19 12:20:45;;;;;;;2.08;1.98;;;;;;;;;;5049319;28;20076;-85
2024/01/19 12:23:14;;;;;;;1.30;1.20;;;;;;;;;;5043313;28;20052;-85
2024/01/19 12:25:43;;;;;;;3.63;1.88;;;;;;;;;;5030351;28;20056;-85
2024/01/19 12:28:12;;;;;;;1.58;1.48;;;;;;;;;;5038739;28;20734;-84
2024/01/19 12:30:42;;;;;;;1.65;1.55;;;;;;;;;;5046196;28;20044;-85
2024/01/19 12:33:21;;;;;;;21.27;2.88;;;;;;;;;;5047057;28;20065;-84
2024/01/19 12:36:03;;;;;;;4.70;3.83;;;;;;;;;;5047419;28;20033;-84
2024/01/19 12:38:31;;;;;;;5.13;3.38;;;;;;;;;;5032938;28;20052;-84
2024/01/19 12:40:59;;;;;;;2.42;2.22;;;;;;;;;;5044284;28;20055;-85
2024/01/19 12:43:33;;;;;;;5.22;3.05;;;;;;;;;;5045376;28;20053;-85
2024/01/19 12:46:05;;;;;;;0.95;0.95;;;;;;;;;;5043664;28;20049;-84
2024/01/19 12:48:34;;;;;;;0.17;0.17;;;;;;;;;;5038896;28;20052;-85
2024/01/19 12:51:04;;;;;;;1.77;1.67;;;;;;;;;;5046559;28;20029;-84
2024/01/19 12:53:32;;;;;;;5.50;4.43;;;;;;;;;;5046551;28;20037;-83
2024/01/19 12:56:21;;;;;;;2.53;1.42;;;;;;;;;;5045292;28;20059;-84
2024/01/19 12:58:49;;;;;;;6.57;5.68;;;;;;;;;;5047049;28;20400;-82
2024/01/19 13:01:18;;;;;;;2.85;1.60;;;;;;;;;;5045656;28;20499;-84
2024/01/19 13:03:45;;;;;;;2.50;2.15;;;;;;;;;;5030335;28;20056;-84
2024/01/19 13:06:13;;;;;;;1.88;1.75;;;;;;;;;;5043455;28;20052;-84
2024/01/19 13:08:40;;;;;;;5.32;4.13;;;;;;;;;;5039545;28;23523;-84
2024/01/19 13:11:09;;;;;;;1.75;1.65;;;;;;;;;;5044366;28;20430;-84
2024/01/19 13:13:37;;;;;;;1.15;1.15;;;;;;;;;;5049541;28;20041;-84
2024/01/19 13:16:12;;;;;;;1.92;1.75;;;;;;;;;;5049873;28;20047;-84
2024/01/19 13:18:41;;;;;;;2.33;2.20;;;;;;;;;;5042488;28;20072;-84
2024/01/19 13:21:12;;;;;;;2.17;2.00;;;;;;;;;;5029142;28;20053;-83
2024/01/19 13:23:41;;;;;;;3.30;2.72;;;;;;;;;;5051018;28;20044;-84
2024/01/19 13:26:19;;;;;;;4.63;2.15;;;;;;;;;;5031507;28;20107;-84
2024/01/19 13:28:47;;;;;;;1.08;1.05;;;;;;;;;;5029768;28;20528;-84
2024/01/19 13:31:15;;;;;;;4.13;1.88;;;;;;;;;;5047866;28;20048;-83
2024/01/19 13:33:46;;;;;;;0.60;0.60;;;;;;;;;;5047406;28;20079;-84
2024/01/19 13:36:15;;;;;;;2.63;1.77;;;;;;;;;;5025962;28;20037;-84
2024/01/19 13:38:45;;;;;;;8.82;6.57;;;;;;;;;;5050650;28;20053;-84
2024/01/19 13:41:14;;;;;;;2.05;1.70;;;;;;;;;;5047013;28;20041;-85
2024/01/19 13:43:44;;;;;;;2.92;2.13;;;;;;;;;;5046636;28;20438;-85
2024/01/19 13:46:18;;;;;;;2.50;2.35;;;;;;;;;;5044924;28;20815;-84
2024/01/19 13:48:49;;;;;;;1.38;1.27;;;;;;;;;;5050435;28;20511;-84
2024/01/19 13:51:17;;;;;;;1.95;1.85;;;;;;;;;;5032529;28;20042;-84
2024/01/19 13:53:45;;;;;;;3.58;1.70;;;;;;;;;;5050742;28;20114;-85
2024/01/19 13:56:13;;;;;;;1.75;1.65;;;;;;;;;;5048552;28;20031;-83
2024/01/19 13:58:49;;;;;;;5.30;3.40;;;;;;;;;;5028344;28;20044;-82
2024/01/19 14:01:18;;;;;;;0.67;0.67;;;;;;;;;;5023308;28;20049;-85
2024/01/19 14:03:53;;;;;;;1.23;1.23;;;;;;;;;;5041161;28;20048;-85
2024/01/19 14:06:22;;;;;;;3.17;2.88;;;;;;;;;;5044292;28;20049;-84
2024/01/19 14:08:52;;;;;;;1.85;1.60;;;;;;;;;;5034177;28;20045;-84
2024/01/19 14:11:21;;;;;;;1.55;1.15;;;;;;;;;;5045521;28;20044;-83
2024/01/19 14:13:49;;;;;;;0.55;0.52;;;;;;;;;;5021885;28;20037;-85
2024/01/19 14:16:16;;;;;;;7.65;5.03;;;;;;;;;;5041703;28;20060;-84
2024/01/19 14:18:44;;;;;;;3.60;3.17;;;;;;;;;;5043653;28;20069;-83
2024/01/19 14:21:11;;;;;;;1.60;1.02;;;;;;;;;;5024818;28;20069;-85
2024/01/19 14:23:38;;;;;;;0.10;0.10;;;;;;;;;;5033174;28;20094;-85
2024/01/19 14:26:08;;;;;;;0.93;0.90;;;;;;;;;;5042734;28;20480;-85
2024/01/19 14:28:36;;;;;;;4.15;1.30;;;;;;;;;;5045959;28;20189;-84
2024/01/19 14:31:04;;;;;;;1.38;1.08;;;;;;;;;;5038044;28;20052;-85
2024/01/19 14:33:32;;;;;;;3.22;2.13;;;;;;;;;;5027914;28;20048;-84
2024/01/19 14:35:59;;;;;;;0.30;0.30;;;;;;;;;;5043927;28;20115;-85
2024/01/19 14:38:27;;;;;;;1.02;1.02;;;;;;;;;;5044879;28;20132;-84
2024/01/19 14:40:54;;;;;;;0.52;0.47;;;;;;;;;;5045019;28;20059;-85
2024/01/19 14:43:21;;;;;;;0.65;0.65;;;;;;;;;;5044687;28;20049;-85
2024/01/19 14:45:51;;;;;;;2.35;2.15;;;;;;;;;;5027730;28;20049;-84
2024/01/19 14:48:19;;;;;;;0.40;0.40;;;;;;;;;;5046205;28;20052;-83
2024/01/19 14:50:51;;;;;;;1.10;1.10;;;;;;;;;;5013870;28;20485;-85
2024/01/19 14:53:18;;;;;;;0.80;0.80;;;;;;;;;;5030291;28;20127;-84
2024/01/19 14:55:46;;;;;;;1.58;1.38;;;;;;;;;;5048213;28;20041;-84